createdAt,value
2019-05-17T00:01:07.467Z,99729.78
2019-05-17T00:04:11.479Z,99721.48
2019-05-17T00:07:01.900Z,99725.14
2019-05-17T00:09:44.547Z,99717.55
2019-05-17T00:12:36.727Z,99722.03
2019-05-17T00:15:39.821Z,99715.95
2019-05-17T00:18:30.182Z,99714.47
2019-05-17T00:21:13.407Z,99714.23
2019-05-17T00:24:03.794Z,99704.66
2019-05-17T00:26:46.767Z,99700.61
2019-05-17T00:29:37.613Z,99698.77
2019-05-17T00:32:40.446Z,99693.10
2019-05-17T00:35:30.849Z,99695.91
2019-05-17T00:38:13.667Z,99683.34
2019-05-17T00:40:56.618Z,99685.08
2019-05-17T00:43:47.030Z,99683.52
2019-05-17T00:46:37.425Z,99680.49
2019-05-17T00:49:27.794Z,99678.41
2019-05-17T00:52:10.746Z,99676.65
2019-05-17T00:55:01.105Z,99670.90
2019-05-17T00:57:44.622Z,99668.81
2019-05-17T01:00:37.567Z,99672.06
2019-05-17T01:03:39.290Z,99665.89
2019-05-17T01:06:29.936Z,99667.80
2019-05-17T01:09:12.675Z,99663.80
2019-05-17T01:12:03.066Z,99665.11
2019-05-17T01:14:46.605Z,99664.89
2019-05-17T01:17:37.204Z,99661.30
2019-05-17T01:20:27.803Z,99656.73
2019-05-17T01:23:10.335Z,99652.42
2019-05-17T01:26:00.751Z,99645.06
2019-05-17T01:28:43.542Z,99648.08
2019-05-17T01:31:33.980Z,99642.51
2019-05-17T01:34:16.793Z,99639.27
2019-05-17T01:37:07.652Z,99636.40
2019-05-17T01:39:50.162Z,99637.64
2019-05-17T01:42:40.510Z,99636.11
2019-05-17T01:45:23.563Z,99631.92
2019-05-17T01:48:16.293Z,99635.55
2019-05-17T01:51:18.433Z,99639.64
2019-05-17T01:54:01.274Z,99632.91
2019-05-17T01:56:51.594Z,99624.18
2019-05-17T01:59:37.108Z,99630.67
2019-05-17T02:05:53.741Z,99621.00
2019-05-17T02:08:44.097Z,99620.55
2019-05-17T02:11:27.274Z,99621.79
2019-05-17T02:14:17.673Z,99611.36
2019-05-17T02:17:20.850Z,99612.36
2019-05-17T02:23:40.425Z,99617.39
2019-05-17T02:26:30.812Z,99616.22
2019-05-17T02:29:14.105Z,99610.35
2019-05-17T02:32:04.611Z,99606.22
2019-05-17T02:34:47.499Z,99608.48
2019-05-17T02:37:37.902Z,99601.45
2019-05-17T02:40:22.703Z,99599.13
2019-05-17T02:43:13.427Z,99596.89
2019-05-17T02:46:17.212Z,99594.59
2019-05-17T02:49:07.604Z,99595.74
2019-05-17T02:51:52.714Z,99596.97
2019-05-17T02:54:43.668Z,99589.31
2019-05-17T02:57:47.665Z,99590.17
2019-05-17T03:00:38.047Z,99591.13
2019-05-17T03:03:23.699Z,99595.28
2019-05-17T03:06:13.796Z,99595.42
2019-05-17T03:09:18.569Z,99595.20
2019-05-17T03:12:08.939Z,99587.40
2019-05-17T03:14:52.930Z,99588.48
2019-05-17T03:17:43.967Z,99585.13
2019-05-17T03:20:47.805Z,99587.78
2019-05-17T03:23:38.174Z,99580.22
2019-05-17T03:26:23.010Z,99584.63
2019-05-17T03:29:13.871Z,99585.09
2019-05-17T03:32:18.302Z,99576.26
2019-05-17T03:35:08.761Z,99581.84
2019-05-17T03:37:53.262Z,99576.52
2019-05-17T03:43:47.980Z,99572.42
2019-05-17T03:46:38.345Z,99568.15
2019-05-17T03:49:22.445Z,99570.69
2019-05-17T03:52:13.687Z,99565.50
2019-05-17T03:55:17.994Z,99566.14
2019-05-17T03:58:08.334Z,99563.27
2019-05-17T04:00:53.419Z,99563.09
2019-05-17T04:03:43.502Z,99557.49
2019-05-17T04:06:47.753Z,99568.75
2019-05-17T04:09:38.106Z,99565.56
2019-05-17T04:12:23.088Z,99562.72
2019-05-17T04:18:43.654Z,99558.59
2019-05-17T04:21:34.516Z,99558.87
2019-05-17T04:24:24.869Z,99558.81
2019-05-17T04:27:07.376Z,99556.03
2019-05-17T04:29:57.767Z,99557.01
2019-05-17T04:32:44.102Z,99553.70
2019-05-17T04:35:33.111Z,99550.00
2019-05-17T04:38:16.468Z,99551.98
2019-05-17T04:41:06.848Z,99551.93
2019-05-17T04:43:57.228Z,99545.91
2019-05-17T04:46:42.908Z,99545.32
2019-05-17T04:49:33.096Z,99543.58
2019-05-17T04:52:36.599Z,99538.59
2019-05-17T04:55:26.994Z,99536.82
2019-05-17T04:58:13.419Z,99539.47
2019-05-17T05:01:04.143Z,99538.16
2019-05-17T05:04:06.698Z,99539.88
2019-05-17T05:06:57.073Z,99540.13
2019-05-17T05:09:42.949Z,99540.44
2019-05-17T05:12:33.642Z,99537.31
2019-05-17T05:15:43.399Z,99537.80
2019-05-17T05:18:52.296Z,99537.65
2019-05-17T05:21:35.044Z,99532.14
2019-05-17T05:24:17.962Z,99534.66
2019-05-17T05:27:08.396Z,99531.28
2019-05-17T05:29:58.868Z,99536.54
2019-05-17T05:32:42.688Z,99530.81
2019-05-17T05:35:33.349Z,99526.61
2019-05-17T05:38:16.355Z,99534.72
2019-05-17T05:41:06.757Z,99534.00
2019-05-17T05:43:52.463Z,99535.73
2019-05-17T05:46:42.412Z,99533.45
2019-05-17T05:49:25.273Z,99539.06
2019-05-17T05:52:15.651Z,99536.34
2019-05-17T05:54:58.625Z,99540.99
2019-05-17T05:57:49.035Z,99545.50
2019-05-17T06:00:33.020Z,99543.30
2019-05-17T06:03:23.596Z,99546.27
2019-05-17T06:06:07.056Z,99543.87
2019-05-17T06:08:57.447Z,99541.13
2019-05-17T06:11:42.798Z,99541.75
2019-05-17T06:14:33.184Z,99542.55
2019-05-17T06:17:15.764Z,99543.46
2019-05-17T06:20:26.820Z,99542.11
2019-05-17T06:23:11.936Z,99537.13
2019-05-17T06:26:04.161Z,99534.53
2019-05-17T06:29:06.147Z,99537.20
2019-05-17T06:31:56.517Z,99534.48
2019-05-17T06:34:46.909Z,99537.75
2019-05-17T06:37:31.787Z,99538.88
2019-05-17T06:40:22.300Z,99535.58
2019-05-17T06:43:05.869Z,99535.50
2019-05-17T06:45:56.231Z,99535.52
2019-05-17T06:48:42.174Z,99535.60
2019-05-17T06:51:31.899Z,99535.14
2019-05-17T06:54:15.195Z,99530.70
2019-05-17T06:57:05.546Z,99532.23
2019-05-17T06:59:48.897Z,99533.48
2019-05-17T07:02:40.234Z,99528.78
2019-05-17T07:05:45.654Z,99528.67
2019-05-17T07:08:36.032Z,99529.78
2019-05-17T07:11:20.921Z,99529.78
2019-05-17T07:14:10.804Z,99523.94
2019-05-17T07:16:54.199Z,99518.30
2019-05-17T07:19:44.599Z,99519.11
2019-05-17T07:22:29.491Z,99518.41
2019-05-17T07:25:12.373Z,99517.77
2019-05-17T07:28:02.770Z,99515.31
2019-05-17T07:30:46.331Z,99516.21
2019-05-17T07:33:36.693Z,99512.95
2019-05-17T07:36:20.292Z,99511.36
2019-05-17T07:39:10.965Z,99505.92
2019-05-17T07:42:15.248Z,99503.47
2019-05-17T07:45:06.143Z,99502.62
2019-05-17T07:47:49.589Z,99502.98
2019-05-17T07:50:40.162Z,99502.56
2019-05-17T07:53:23.402Z,99499.79
2019-05-17T07:56:06.518Z,99494.39
2019-05-17T07:58:56.936Z,99492.98
2019-05-17T08:01:41.862Z,99496.02
2019-05-17T08:04:32.302Z,99497.08
2019-05-17T08:07:15.056Z,99495.70
2019-05-17T08:10:05.541Z,99483.56
2019-05-17T08:12:49.796Z,99485.86
2019-05-17T08:15:40.305Z,99474.31
2019-05-17T08:18:23.836Z,99467.32
2019-05-17T08:21:14.251Z,99469.48
2019-05-17T08:23:57.017Z,99479.17
2019-05-17T08:26:47.381Z,99471.05
2019-05-17T08:29:50.656Z,99469.22
2019-05-17T08:32:41.020Z,99469.18
2019-05-17T08:35:23.723Z,99468.02
2019-05-17T08:38:14.084Z,99464.51
2019-05-17T08:41:17.497Z,99465.86
2019-05-17T08:44:10.109Z,99464.82
2019-05-17T08:47:12.419Z,99464.48
2019-05-17T08:50:02.801Z,99458.95
2019-05-17T08:52:45.604Z,99453.77
2019-05-17T08:55:36.920Z,99452.14
2019-05-17T08:58:36.257Z,99449.06
2019-05-17T09:01:38.239Z,99452.45
2019-05-17T09:04:40.483Z,99452.59
2019-05-17T09:07:31.000Z,99443.81
2019-05-17T09:10:13.841Z,99445.33
2019-05-17T09:13:04.252Z,99445.41
2019-05-17T09:15:49.342Z,99440.97
2019-05-17T09:18:39.579Z,99438.11
2019-05-17T09:21:22.649Z,99446.58
2019-05-17T09:24:12.975Z,99436.75
2019-05-17T09:26:56.007Z,99443.63
2019-05-17T09:29:46.328Z,99435.86
2019-05-17T09:32:29.565Z,99443.67
2019-05-17T09:35:20.848Z,99437.92
2019-05-17T09:38:24.460Z,99438.92
2019-05-17T09:41:14.845Z,99429.58
2019-05-17T09:44:09.563Z,99436.86
2019-05-17T09:46:50.459Z,99434.60
2019-05-17T09:49:54.279Z,99431.89
2019-05-17T09:52:44.652Z,99432.28
2019-05-17T09:55:27.292Z,99431.27
2019-05-17T09:58:17.690Z,99429.25
2019-05-17T10:01:01.566Z,99426.59
2019-05-17T10:03:52.177Z,99420.77
2019-05-17T10:06:34.889Z,99421.46
2019-05-17T10:09:25.273Z,99419.64
2019-05-17T10:12:09.512Z,99418.36
2019-05-17T10:15:00.600Z,99418.98
2019-05-17T10:18:04.737Z,99415.61
2019-05-17T10:20:55.137Z,99418.09
2019-05-17T10:23:40.472Z,99412.39
2019-05-17T10:26:30.547Z,99409.93
2019-05-17T10:29:13.368Z,99405.41
2019-05-17T10:32:03.721Z,99409.14
2019-05-17T10:34:46.488Z,99407.43
2019-05-17T10:37:36.813Z,99402.80
2019-05-17T10:40:21.714Z,99399.11
2019-05-17T10:43:14.275Z,99392.95
2019-05-17T10:45:59.400Z,99396.86
2019-05-17T10:48:50.028Z,99399.28
2019-05-17T10:51:55.270Z,99394.97
2019-05-17T10:54:45.696Z,99387.28
2019-05-17T10:57:30.321Z,99394.72
2019-05-17T11:03:50.373Z,99389.50
2019-05-17T11:06:40.196Z,99383.72
2019-05-17T11:09:23.313Z,99389.45
2019-05-17T11:12:13.675Z,99387.25
2019-05-17T11:15:10.885Z,99385.98
2019-05-17T11:18:08.651Z,99390.77
2019-05-17T11:20:59.032Z,99385.09
2019-05-17T11:23:41.905Z,99389.11
2019-05-17T11:26:32.310Z,99386.92
2019-05-17T11:29:14.933Z,99390.68
2019-05-17T11:32:05.307Z,99395.59
2019-05-17T11:34:48.240Z,99390.31
2019-05-17T11:37:38.641Z,99395.39
2019-05-17T11:40:22.408Z,99400.50
2019-05-17T11:43:12.765Z,99397.77
2019-05-17T11:45:55.520Z,99389.02
2019-05-17T11:48:45.890Z,99396.17
2019-05-17T11:51:28.905Z,99393.22
2019-05-17T11:54:19.277Z,99393.53
2019-05-17T11:57:02.668Z,99395.20
2019-05-17T11:59:53.028Z,99399.75
2019-05-17T12:02:36.446Z,99395.41
2019-05-17T12:05:26.820Z,99391.35
2019-05-17T12:08:12.543Z,99390.22
2019-05-17T12:11:03.084Z,99385.70
2019-05-17T12:13:46.557Z,99381.73
2019-05-17T12:16:36.946Z,99388.17
2019-05-17T12:19:19.527Z,99383.98
2019-05-17T12:22:09.937Z,99384.12
2019-05-17T12:24:54.223Z,99383.08
2019-05-17T12:27:46.344Z,99376.03
2019-05-17T12:30:29.679Z,99381.38
2019-05-17T12:33:13.114Z,99374.39
2019-05-17T12:36:03.472Z,99374.52
2019-05-17T12:38:46.543Z,99375.14
2019-05-17T12:41:36.904Z,99377.59
2019-05-17T12:44:20.332Z,99370.26
2019-05-17T12:47:10.698Z,99359.23
2019-05-17T12:49:53.274Z,99360.63
2019-05-17T12:52:43.581Z,99365.27
2019-05-17T12:55:26.409Z,99369.74
2019-05-17T12:58:16.781Z,99365.16
2019-05-17T13:01:00.152Z,99360.78
2019-05-17T13:03:50.517Z,99360.78
2019-05-17T13:06:33.855Z,99356.45
2019-05-17T13:09:24.257Z,99356.56
2019-05-17T13:12:07.159Z,99352.16
2019-05-17T13:14:57.524Z,99355.98
2019-05-17T13:17:40.255Z,99359.32
2019-05-17T13:20:30.630Z,99358.48
2019-05-17T13:23:14.158Z,99355.39
2019-05-17T13:26:04.745Z,99356.61
2019-05-17T13:28:47.831Z,99350.97
2019-05-17T13:31:38.229Z,99356.58
2019-05-17T13:34:21.885Z,99349.78
2019-05-17T13:37:12.586Z,99345.37
2019-05-17T13:39:55.837Z,99345.89
2019-05-17T13:42:46.274Z,99346.09
2019-05-17T13:45:48.790Z,99347.36
2019-05-17T13:48:39.386Z,99339.07
2019-05-17T13:51:22.969Z,99331.48
2019-05-17T13:54:13.322Z,99336.81
2019-05-17T13:56:56.496Z,99342.10
2019-05-17T13:59:46.855Z,99334.03
2019-05-17T14:02:29.733Z,99326.34
2019-05-17T14:05:20.065Z,99332.52
2019-05-17T14:08:03.355Z,99331.37
2019-05-17T14:10:53.711Z,99334.50
2019-05-17T14:13:37.020Z,99334.67
2019-05-17T14:16:27.458Z,99335.55
2019-05-17T14:19:10.638Z,99335.55
2019-05-17T14:21:53.445Z,99338.27
2019-05-17T14:24:43.893Z,99334.64
2019-05-17T14:27:27.396Z,99334.73
2019-05-17T14:30:17.837Z,99335.86
2019-05-17T14:33:00.443Z,99338.09
2019-05-17T14:35:50.798Z,99336.08
2019-05-17T14:38:33.706Z,99336.23
2019-05-17T14:41:24.357Z,99342.98
2019-05-17T14:44:06.995Z,99338.28
2019-05-17T14:46:57.323Z,99334.44
2019-05-17T14:49:40.566Z,99335.20
2019-05-17T14:52:30.884Z,99338.13
2019-05-17T14:55:14.360Z,99335.45
2019-05-17T14:57:57.181Z,99329.27
2019-05-17T15:00:47.610Z,99332.41
2019-05-17T15:03:50.695Z,99328.86
2019-05-17T15:06:41.042Z,99326.97
2019-05-17T15:09:24.301Z,99330.51
2019-05-17T15:12:27.130Z,99333.82
2019-05-17T15:15:25.633Z,99331.30
2019-05-17T15:18:11.263Z,99324.73
2019-05-17T15:20:53.826Z,99324.70
2019-05-17T15:23:44.153Z,99318.98
2019-05-17T15:26:27.247Z,99322.30
2019-05-17T15:29:17.604Z,99318.31
2019-05-17T15:32:00.267Z,99306.67
2019-05-17T15:34:50.596Z,99308.09
2019-05-17T15:37:33.802Z,99303.78
2019-05-17T15:40:24.195Z,99298.45
2019-05-17T15:43:07.691Z,99303.78
2019-05-17T15:45:58.071Z,99301.72
2019-05-17T15:48:40.621Z,99300.01
2019-05-17T15:51:30.965Z,99299.55
2019-05-17T15:54:13.672Z,99295.73
2019-05-17T15:57:04.071Z,99297.16
2019-05-17T15:59:46.672Z,99292.31
2019-05-17T16:02:37.064Z,99291.56
2019-05-17T16:05:19.901Z,99292.03
2019-05-17T16:08:10.296Z,99280.83
2019-05-17T16:10:53.623Z,99273.88
2019-05-17T16:13:43.975Z,99274.97
2019-05-17T16:16:26.617Z,99274.31
2019-05-17T16:19:16.991Z,99274.39
2019-05-17T16:22:07.366Z,99265.53
2019-05-17T16:24:50.469Z,99265.23
2019-05-17T16:27:40.839Z,99261.66
2019-05-17T16:30:23.460Z,99261.22
2019-05-17T16:33:13.841Z,99257.95
2019-05-17T16:35:56.372Z,99259.99
2019-05-17T16:38:46.751Z,99257.55
2019-05-17T16:41:29.987Z,99259.36
2019-05-17T16:44:20.352Z,99256.55
2019-05-17T16:47:10.727Z,99253.19
2019-05-17T16:50:01.111Z,99258.88
2019-05-17T16:52:44.255Z,99258.30
2019-05-17T16:55:34.625Z,99253.48
2019-05-17T16:58:17.312Z,99254.19
2019-05-17T17:01:07.694Z,99250.97
2019-05-17T17:03:50.546Z,99250.23
2019-05-17T17:06:40.938Z,99256.73
2019-05-17T17:09:24.127Z,99254.27
2019-05-17T17:12:14.503Z,99254.27
2019-05-17T17:14:57.016Z,99250.34
2019-05-17T17:17:47.351Z,99255.19
2019-05-17T17:20:30.798Z,99251.20
2019-05-17T17:23:21.453Z,99255.26
2019-05-17T17:26:04.271Z,99252.93
2019-05-17T17:28:54.620Z,99253.81
2019-05-17T17:31:37.487Z,99249.67
2019-05-17T17:34:27.842Z,99249.49
2019-05-17T17:37:10.489Z,99251.00
2019-05-17T17:40:00.880Z,99244.73
2019-05-17T17:42:44.173Z,99243.27
2019-05-17T17:45:34.541Z,99239.84
2019-05-17T17:48:37.025Z,99250.66
2019-05-17T17:51:27.440Z,99246.48
2019-05-17T17:54:10.974Z,99246.36
2019-05-17T17:57:01.341Z,99250.49
2019-05-17T17:59:51.745Z,99245.45
2019-05-17T18:02:34.512Z,99253.05
2019-05-17T18:05:25.336Z,99249.89
2019-05-17T18:08:29.732Z,99248.02
2019-05-17T18:11:20.115Z,99251.58
2019-05-17T18:14:12.835Z,99254.96
2019-05-17T18:16:55.407Z,99249.41
2019-05-17T18:19:38.566Z,99250.07
2019-05-17T18:22:21.573Z,99248.88
2019-05-17T18:25:11.964Z,99248.70
2019-05-17T18:27:54.676Z,99248.94
2019-05-17T18:30:45.081Z,99250.06
2019-05-17T18:33:28.033Z,99250.92
2019-05-17T18:36:18.458Z,99246.70
2019-05-17T18:39:20.923Z,99242.17
2019-05-17T18:42:11.296Z,99242.86
2019-05-17T18:44:53.991Z,99248.67
2019-05-17T18:47:44.413Z,99256.53
2019-05-17T18:50:28.227Z,99251.56
2019-05-17T18:53:18.737Z,99246.66
2019-05-17T18:56:01.772Z,99251.98
2019-05-17T18:58:52.146Z,99251.98
2019-05-17T19:01:35.755Z,99254.63
2019-05-17T19:04:26.172Z,99255.97
2019-05-17T19:07:09.296Z,99260.20
2019-05-17T19:09:59.713Z,99264.06
2019-05-17T19:12:42.460Z,99269.11
2019-05-17T19:15:32.895Z,99266.59
2019-05-17T19:18:15.626Z,99272.02
2019-05-17T19:20:58.423Z,99277.91
2019-05-17T19:23:48.881Z,99285.11
2019-05-17T19:26:31.585Z,99287.05
2019-05-17T19:29:22.035Z,99282.95
2019-05-17T19:32:26.217Z,99283.20
2019-05-17T19:35:16.633Z,99291.27
2019-05-17T19:38:00.049Z,99288.25
2019-05-17T19:40:50.443Z,99287.88
2019-05-17T19:43:33.935Z,99292.58
2019-05-17T19:46:24.335Z,99291.01
2019-05-17T19:49:07.618Z,99294.61
2019-05-17T19:51:57.913Z,99301.23
2019-05-17T19:54:41.252Z,99297.14
2019-05-17T19:57:31.641Z,99300.57
2019-05-17T20:00:15.875Z,99293.77
2019-05-17T20:03:06.243Z,99292.31
2019-05-17T20:05:48.953Z,99286.63
2019-05-17T20:08:39.314Z,99284.36
2019-05-17T20:11:34.386Z,99288.65
2019-05-17T20:14:41.776Z,99286.34
2019-05-17T20:17:24.718Z,99280.92
2019-05-17T20:23:45.007Z,99284.05
2019-05-17T20:26:35.411Z,99284.27
2019-05-17T20:29:25.773Z,99281.61
2019-05-17T20:32:16.197Z,99282.69
2019-05-17T20:35:02.572Z,99277.14
2019-05-17T20:37:52.987Z,99268.11
2019-05-17T20:40:36.380Z,99271.58
2019-05-17T20:43:29.387Z,99273.16
2019-05-17T20:46:12.065Z,99269.91
2019-05-17T20:49:02.403Z,99268.64
2019-05-17T20:51:45.832Z,99269.87
2019-05-17T20:54:36.315Z,99270.38
2019-05-17T20:57:19.258Z,99265.09
2019-05-17T21:03:06.260Z,99270.51
2019-05-17T21:05:56.668Z,99272.65
2019-05-17T21:08:46.122Z,99269.66
2019-05-17T21:11:12.426Z,99274.23
2019-05-17T21:14:02.739Z,99270.38
2019-05-17T21:16:53.102Z,99274.92
2019-05-17T21:19:35.907Z,99276.11
2019-05-17T21:22:26.248Z,99279.98
2019-05-17T21:25:09.894Z,99273.12
2019-05-17T21:28:00.277Z,99276.11
2019-05-17T21:30:43.812Z,99272.01
2019-05-17T21:33:34.188Z,99275.21
2019-05-17T21:36:17.485Z,99273.88
2019-05-17T21:39:08.767Z,99270.77
2019-05-17T21:42:11.749Z,99270.98
2019-05-17T21:45:02.125Z,99261.25
2019-05-17T21:47:45.521Z,99260.64
2019-05-17T21:50:35.894Z,99262.82
2019-05-17T21:53:19.426Z,99269.44
2019-05-17T21:56:09.764Z,99268.38
2019-05-17T21:58:53.045Z,99260.43
2019-05-17T22:01:43.475Z,99265.17
2019-05-17T22:04:27.116Z,99264.34
2019-05-17T22:07:17.502Z,99257.23
2019-05-17T22:10:07.647Z,99263.36
2019-05-17T22:12:58.046Z,99265.88
2019-05-17T22:15:41.115Z,99262.80
2019-05-17T22:18:31.477Z,99267.63
2019-05-17T22:21:14.585Z,99261.98
2019-05-17T22:24:05.013Z,99264.49
2019-05-17T22:26:48.056Z,99265.17
2019-05-17T22:29:38.411Z,99260.34
2019-05-17T22:32:41.732Z,99249.45
2019-05-17T22:35:32.116Z,99248.63
2019-05-17T22:38:14.747Z,99243.75
2019-05-17T22:41:05.242Z,99240.31
2019-05-17T22:43:48.769Z,99244.39
2019-05-17T22:46:39.129Z,99242.22
2019-05-17T22:49:22.518Z,99240.79
2019-05-17T22:52:12.878Z,99242.34
2019-05-17T22:54:56.297Z,99235.21
2019-05-17T22:57:46.646Z,99242.09
2019-05-17T23:00:49.936Z,99240.73
2019-05-17T23:03:40.259Z,99240.12
2019-05-17T23:06:23.191Z,99237.15
2019-05-17T23:09:13.524Z,99240.38
2019-05-17T23:11:56.459Z,99235.73
2019-05-17T23:14:46.800Z,99232.67
2019-05-17T23:17:29.951Z,99229.67
2019-05-17T23:20:20.308Z,99226.84
2019-05-17T23:23:03.702Z,99232.72
2019-05-17T23:25:54.042Z,99229.70
2019-05-17T23:28:36.814Z,99241.38
2019-05-17T23:31:27.272Z,99231.56
2019-05-17T23:34:09.849Z,99236.95
2019-05-17T23:37:00.250Z,99233.16
2019-05-17T23:39:43.644Z,99232.45
2019-05-17T23:42:34.030Z,99235.20
2019-05-17T23:45:17.305Z,99227.02
2019-05-17T23:48:07.687Z,99228.56
2019-05-17T23:50:50.823Z,99237.21
2019-05-17T23:53:41.216Z,99238.37
2019-05-17T23:56:24.501Z,99235.45
2019-05-17T23:59:14.879Z,99232.38
